createdAt,value
2023-04-03T03:01:29.520Z,21.13
2023-04-03T03:03:56.841Z,21.83
2023-04-03T03:06:24.407Z,21.53
2023-04-03T03:08:51.624Z,20.83
2023-04-03T03:11:19.489Z,21.03
2023-04-03T03:13:46.804Z,21.30
2023-04-03T03:16:14.221Z,21.40
2023-04-03T03:18:41.439Z,19.70
2023-04-03T03:21:10.455Z,20.83
2023-04-03T03:23:38.006Z,19.53
2023-04-03T03:26:08.132Z,20.87
2023-04-03T03:28:37.254Z,19.60
2023-04-03T03:31:04.997Z,21.23
2023-04-03T03:33:34.393Z,20.20
2023-04-03T03:36:01.997Z,20.07
2023-04-03T03:38:29.396Z,19.70
2023-04-03T03:40:56.681Z,20.57
2023-04-03T03:43:23.893Z,19.90
2023-04-03T03:45:53.476Z,19.80
2023-04-03T03:48:21.963Z,19.63
2023-04-03T03:53:25.768Z,20.07
2023-04-03T03:55:52.921Z,18.37
2023-04-03T03:58:20.348Z,20.47
2023-04-03T04:04:33.840Z,18.60
2023-04-03T04:07:04.045Z,21.63
2023-04-03T04:09:31.269Z,18.40
2023-04-03T04:11:58.852Z,17.50
2023-04-03T04:14:26.090Z,19.47
2023-04-03T04:16:53.329Z,17.37
2023-04-03T04:19:20.593Z,19.33
2023-04-03T04:21:47.810Z,17.53
2023-04-03T04:24:15.129Z,17.80
2023-04-03T04:26:42.312Z,18.23
2023-04-03T04:29:11.184Z,18.67
2023-04-03T04:31:38.418Z,17.10
2023-04-03T04:34:05.645Z,18.30
2023-04-03T04:36:32.905Z,17.73
2023-04-03T04:39:00.573Z,16.70
2023-04-03T04:41:27.813Z,16.50
2023-04-03T04:43:55.485Z,14.83
2023-04-03T04:46:23.179Z,15.63
2023-04-03T04:48:50.764Z,15.20
2023-04-03T04:51:17.987Z,14.90
2023-04-03T04:53:45.298Z,14.50
2023-04-03T04:56:12.825Z,14.23
2023-04-03T04:58:40.045Z,14.80
2023-04-03T05:01:10.420Z,15.33
2023-04-03T05:03:37.702Z,13.80
2023-04-03T05:06:05.551Z,14.80
2023-04-03T05:08:33.250Z,14.77
2023-04-03T05:11:00.582Z,15.03
2023-04-03T05:13:27.789Z,14.90
2023-04-03T05:15:55.069Z,13.37
2023-04-03T05:18:22.303Z,13.70
2023-04-03T05:20:51.371Z,13.40
2023-04-03T05:23:18.730Z,14.13
2023-04-03T05:25:47.844Z,13.67
2023-04-03T05:28:15.411Z,13.40
2023-04-03T05:30:42.670Z,13.40
2023-04-03T05:33:10.481Z,13.67
2023-04-03T05:35:42.493Z,14.30
2023-04-03T05:38:10.206Z,13.40
2023-04-03T05:40:37.932Z,13.70
2023-04-03T05:43:05.706Z,13.20
2023-04-03T05:45:33.022Z,13.63
2023-04-03T05:48:00.344Z,14.50
2023-04-03T05:50:27.997Z,14.23
2023-04-03T05:52:59.124Z,14.93
2023-04-03T05:55:26.475Z,13.77
2023-04-03T05:57:53.738Z,14.73
2023-04-03T06:00:22.170Z,14.37
2023-04-03T06:02:49.524Z,13.10
2023-04-03T06:05:17.022Z,15.27
2023-04-03T06:07:45.554Z,15.27
2023-04-03T06:10:14.580Z,15.13
2023-04-03T06:12:42.652Z,14.60
2023-04-03T06:15:11.284Z,16.33
2023-04-03T06:17:39.037Z,16.13
2023-04-03T06:20:07.200Z,16.47
2023-04-03T06:22:34.393Z,16.67
2023-04-03T06:25:01.779Z,16.60
2023-04-03T06:27:29.029Z,16.87
2023-04-03T06:29:56.486Z,16.63
2023-04-03T06:32:24.062Z,17.27
2023-04-03T06:34:51.805Z,15.87
2023-04-03T06:37:21.094Z,17.47
2023-04-03T06:39:48.939Z,18.30
2023-04-03T06:42:16.216Z,16.67
2023-04-03T06:44:43.469Z,18.47
2023-04-03T06:47:14.223Z,18.27
2023-04-03T06:49:42.327Z,18.00
2023-04-03T06:52:10.612Z,18.47
2023-04-03T06:54:37.915Z,18.37
2023-04-03T06:57:05.524Z,18.53
2023-04-03T06:59:32.766Z,18.40
2023-04-03T07:02:00.827Z,20.77
2023-04-03T07:04:28.252Z,20.80
2023-04-03T07:06:55.691Z,19.57
2023-04-03T07:09:22.940Z,19.77
2023-04-03T07:11:50.366Z,19.40
2023-04-03T07:14:17.617Z,19.33
2023-04-03T07:16:44.916Z,19.83
2023-04-03T07:19:12.535Z,20.07
2023-04-03T07:21:39.983Z,18.53
2023-04-03T07:24:08.889Z,18.27
2023-04-03T07:26:38.633Z,19.77
2023-04-03T07:29:05.976Z,19.60
2023-04-03T07:31:34.833Z,18.57
2023-04-03T07:34:02.225Z,17.53
2023-04-03T07:36:30.000Z,16.43
2023-04-03T07:38:57.520Z,16.80
2023-04-03T07:41:24.729Z,17.67
2023-04-03T07:43:53.010Z,17.60
2023-04-03T07:46:21.699Z,17.70
2023-04-03T07:48:49.154Z,17.80
2023-04-03T07:51:17.250Z,16.77
2023-04-03T07:53:44.530Z,15.10
2023-04-03T07:56:11.862Z,16.20
2023-04-03T07:58:39.192Z,16.00
2023-04-03T08:01:07.217Z,14.53
2023-04-03T08:03:34.599Z,14.90
2023-04-03T08:06:11.732Z,14.77
2023-04-03T08:08:42.751Z,16.10
2023-04-03T08:11:11.900Z,15.27
2023-04-03T08:13:39.517Z,13.50
2023-04-03T08:16:16.812Z,13.27
2023-04-03T08:18:44.462Z,14.73
2023-04-03T08:21:13.040Z,14.03
2023-04-03T08:23:42.539Z,13.27
2023-04-03T08:26:17.844Z,12.27
2023-04-03T08:28:45.331Z,15.43
2023-04-03T08:31:16.424Z,12.63
2023-04-03T08:33:43.770Z,13.90
2023-04-03T08:36:31.324Z,13.10
2023-04-03T08:38:58.881Z,12.50
2023-04-03T08:41:40.057Z,12.17
2023-04-03T08:44:23.421Z,12.20
2023-04-03T08:47:04.022Z,12.20
2023-04-03T08:49:48.604Z,11.20
2023-04-03T08:52:24.762Z,11.30
2023-04-03T08:54:53.504Z,10.53
2023-04-03T08:57:33.499Z,10.97
2023-04-03T09:00:08.807Z,10.07
2023-04-03T09:02:48.935Z,11.47
2023-04-03T09:05:23.053Z,10.57
2023-04-03T09:08:02.364Z,10.13
2023-04-03T09:10:34.949Z,10.60
2023-04-03T09:13:10.732Z,9.40
2023-04-03T09:15:39.728Z,9.70
2023-04-03T09:18:20.651Z,8.50
2023-04-03T09:21:01.759Z,8.30
2023-04-03T09:23:32.578Z,7.83
2023-04-03T09:26:08.607Z,8.03
2023-04-03T09:28:49.444Z,8.30
2023-04-03T09:31:23.582Z,8.13
2023-04-03T09:33:54.135Z,8.27
2023-04-03T09:36:41.686Z,7.80
2023-04-03T09:39:21.398Z,7.40
2023-04-03T09:42:04.109Z,7.53
2023-04-03T09:44:39.920Z,6.97
2023-04-03T09:47:37.219Z,7.20
2023-04-03T09:50:22.339Z,7.33
2023-04-03T09:52:52.713Z,7.33
2023-04-03T09:55:27.873Z,6.90
2023-04-03T09:58:00.986Z,6.83
2023-04-03T10:00:40.120Z,7.13
2023-04-03T10:03:26.230Z,6.00
2023-04-03T10:05:55.517Z,7.23
2023-04-03T10:08:27.209Z,6.90
2023-04-03T10:11:19.685Z,7.10
2023-04-03T10:13:54.072Z,6.47
2023-04-03T10:16:28.409Z,6.83
2023-04-03T10:18:58.556Z,7.20
2023-04-03T10:21:35.018Z,7.37
2023-04-03T10:24:30.911Z,6.90
2023-04-03T10:27:39.226Z,7.53
2023-04-03T10:30:12.355Z,6.93
2023-04-03T10:33:07.504Z,6.97
2023-04-03T10:36:12.711Z,6.53
2023-04-03T10:39:10.949Z,6.90
2023-04-03T10:41:47.013Z,7.00
2023-04-03T10:44:50.673Z,7.37
2023-04-03T10:47:44.974Z,7.07
2023-04-03T10:50:31.590Z,6.80
2023-04-03T10:53:18.157Z,7.23
2023-04-03T10:56:02.617Z,6.37
2023-04-03T10:58:38.607Z,6.97
2023-04-03T11:01:17.459Z,7.37
2023-04-03T11:03:49.323Z,6.77
2023-04-03T11:06:18.923Z,6.93
2023-04-03T11:09:04.721Z,6.20
2023-04-03T11:11:36.837Z,6.73
2023-04-03T11:14:27.976Z,7.33
2023-04-03T11:17:15.643Z,7.47
2023-04-03T11:19:58.142Z,6.67
2023-04-03T11:22:28.319Z,8.30
2023-04-03T11:25:11.710Z,7.80
2023-04-03T11:27:57.641Z,7.83
2023-04-03T11:30:38.851Z,6.87
2023-04-03T11:33:20.851Z,7.67
2023-04-03T11:35:52.867Z,7.13
2023-04-03T11:38:30.397Z,8.03
2023-04-03T11:40:59.582Z,7.00
2023-04-03T11:43:34.397Z,7.83
2023-04-03T11:46:07.242Z,7.90
2023-04-03T11:48:37.221Z,8.20
2023-04-03T11:51:17.324Z,8.20
2023-04-03T11:53:45.782Z,7.80
2023-04-03T11:56:25.012Z,7.50
2023-04-03T11:59:13.495Z,7.70
2023-04-03T12:01:59.102Z,10.40
2023-04-03T12:04:27.896Z,9.03
2023-04-03T12:07:20.217Z,8.50
2023-04-03T12:09:47.633Z,10.30
2023-04-03T12:12:36.920Z,8.73
2023-04-03T12:15:19.105Z,9.97
2023-04-03T12:17:46.471Z,8.87
2023-04-03T12:20:50.704Z,8.10
2023-04-03T12:23:29.913Z,8.20
2023-04-03T12:26:07.570Z,7.60
2023-04-03T12:28:40.773Z,8.13
2023-04-03T12:31:12.512Z,7.70
2023-04-03T12:33:57.715Z,7.20
2023-04-03T12:36:44.927Z,8.17
2023-04-03T12:39:25.848Z,7.40
2023-04-03T12:41:56.354Z,7.83
2023-04-03T12:44:46.322Z,7.40
2023-04-03T12:47:37.273Z,7.20
2023-04-03T12:50:17.052Z,7.10
2023-04-03T12:52:51.043Z,7.00
2023-04-03T12:55:21.321Z,6.93
2023-04-03T12:58:22.280Z,7.30
2023-04-03T13:01:04.839Z,6.97
2023-04-03T13:03:32.542Z,6.87
2023-04-03T13:06:25.673Z,7.03
2023-04-03T13:08:58.973Z,6.80
2023-04-03T13:11:39.386Z,6.13
2023-04-03T13:14:16.992Z,6.10
2023-04-03T13:16:56.019Z,7.10
2023-04-03T13:19:28.298Z,6.70
2023-04-03T13:22:04.683Z,7.10
2023-04-03T13:24:36.152Z,7.53
2023-04-03T13:27:04.138Z,7.80
2023-04-03T13:29:58.076Z,8.20
2023-04-03T13:32:45.770Z,7.87
2023-04-03T13:35:38.894Z,8.37
2023-04-03T13:38:18.397Z,8.10
2023-04-03T13:40:55.581Z,8.37
2023-04-03T13:43:30.916Z,9.00
2023-04-03T13:45:58.195Z,8.00
2023-04-03T13:48:26.459Z,8.13
2023-04-03T13:51:05.753Z,8.60
2023-04-03T13:53:41.854Z,7.97
2023-04-03T13:56:17.659Z,7.63
2023-04-03T13:59:17.344Z,7.53
2023-04-03T14:01:49.442Z,7.27
2023-04-03T14:04:29.088Z,8.17
2023-04-03T14:06:57.517Z,8.00
2023-04-03T14:09:27.648Z,8.97
2023-04-03T14:12:01.390Z,7.90
2023-04-03T14:14:32.278Z,7.80
2023-04-03T14:17:02.418Z,7.87
2023-04-03T14:19:36.795Z,8.20
2023-04-03T14:22:23.364Z,7.50
2023-04-03T14:24:52.463Z,7.13
2023-04-03T14:27:34.010Z,7.20
2023-04-03T14:30:02.029Z,7.70
2023-04-03T14:32:29.615Z,7.53
2023-04-03T14:35:00.937Z,7.83
2023-04-03T14:37:30.567Z,6.90
2023-04-03T14:40:00.159Z,8.00
2023-04-03T14:42:48.246Z,11.87
2023-04-03T14:45:16.695Z,8.53
2023-04-03T14:47:48.595Z,7.53
2023-04-03T14:50:19.522Z,8.50
2023-04-03T14:52:47.225Z,14.13
2023-04-03T14:55:17.519Z,12.70
2023-04-03T14:57:45.197Z,10.13
2023-04-03T15:00:17.793Z,9.20
2023-04-03T15:02:46.907Z,8.77
2023-04-03T15:05:15.869Z,6.50
2023-04-03T15:07:47.824Z,10.90
2023-04-03T15:10:16.951Z,7.60
2023-04-03T15:12:45.992Z,9.43
2023-04-03T15:15:14.777Z,13.03
2023-04-03T15:17:43.211Z,8.07
2023-04-03T15:20:19.421Z,7.60
2023-04-03T15:22:46.911Z,7.80
2023-04-03T15:25:14.492Z,7.53
2023-04-03T15:27:42.100Z,11.77
2023-04-03T15:30:14.897Z,7.63
2023-04-03T15:33:01.116Z,6.90
2023-04-03T15:35:28.332Z,8.00
2023-04-03T15:37:55.832Z,7.80
2023-04-03T15:40:23.266Z,7.63
2023-04-03T15:42:51.824Z,6.43
2023-04-03T15:45:20.566Z,6.83
2023-04-03T15:47:47.903Z,7.87
2023-04-03T15:50:15.201Z,6.60
2023-04-03T15:52:42.525Z,8.57
2023-04-03T15:55:10.458Z,6.50
2023-04-03T16:00:16.603Z,7.20
2023-04-03T16:02:46.169Z,7.97
2023-04-03T16:05:16.384Z,7.20
2023-04-03T16:07:44.171Z,9.07
2023-04-03T16:10:16.710Z,7.90
2023-04-03T16:12:44.562Z,8.77
2023-04-03T16:15:12.557Z,9.13
2023-04-03T16:17:44.498Z,17.17
2023-04-03T16:20:14.015Z,10.50
2023-04-03T16:22:41.895Z,7.47
2023-04-03T16:25:10.371Z,9.47
2023-04-03T16:27:39.008Z,6.70
2023-04-03T16:30:24.906Z,9.00
2023-04-03T16:32:52.323Z,7.40
2023-04-03T16:35:19.610Z,8.00
2023-04-03T16:37:46.882Z,8.00
2023-04-03T16:40:14.162Z,8.00
2023-04-03T16:42:41.610Z,7.60
2023-04-03T16:45:09.583Z,6.73
2023-04-03T16:47:36.848Z,6.53
2023-04-03T16:50:22.937Z,6.03
2023-04-03T16:52:50.379Z,7.87
2023-04-03T16:55:17.794Z,7.93
2023-04-03T16:57:45.099Z,6.67
2023-04-03T17:00:12.911Z,10.43
2023-04-03T17:02:40.957Z,7.97
2023-04-03T17:05:08.719Z,7.00
2023-04-03T17:07:54.845Z,6.67
2023-04-03T17:10:40.958Z,7.63
2023-04-03T17:13:09.095Z,7.40
2023-04-03T17:15:36.827Z,8.00
2023-04-03T17:18:04.205Z,7.77
2023-04-03T17:20:31.647Z,7.90
2023-04-03T17:22:58.901Z,7.43
2023-04-03T17:25:26.137Z,7.00
2023-04-03T17:27:53.413Z,7.43
2023-04-03T17:30:20.770Z,6.30
2023-04-03T17:33:06.841Z,7.53
2023-04-03T17:35:53.145Z,7.23
2023-04-03T17:38:38.810Z,6.50
2023-04-03T17:41:24.901Z,7.63
2023-04-03T17:44:11.065Z,7.73
2023-04-03T17:46:56.874Z,8.40
2023-04-03T17:49:42.943Z,7.43
2023-04-03T17:52:16.209Z,8.27
2023-04-03T17:54:43.511Z,8.03
2023-04-03T17:57:10.907Z,7.20
2023-04-03T17:59:38.351Z,7.30
2023-04-03T18:02:05.722Z,5.70
2023-04-03T18:04:33.080Z,5.10
2023-04-03T18:07:02.692Z,5.57
2023-04-03T18:09:34.968Z,6.23
2023-04-03T18:12:04.996Z,9.67
2023-04-03T18:14:33.634Z,8.87
2023-04-03T18:17:01.067Z,6.37
2023-04-03T18:19:29.912Z,8.10
2023-04-03T18:22:00.904Z,9.33
2023-04-03T18:24:29.402Z,8.83
2023-04-03T18:27:01.287Z,9.07
2023-04-03T18:29:32.737Z,8.97
2023-04-03T18:32:03.855Z,7.80
2023-04-03T18:34:31.755Z,8.10
2023-04-03T18:37:00.055Z,6.10
2023-04-03T18:39:27.812Z,7.17
2023-04-03T18:41:57.339Z,6.93
2023-04-03T18:44:26.455Z,6.50
2023-04-03T18:46:54.396Z,6.30
2023-04-03T18:49:22.103Z,6.50
2023-04-03T18:51:49.897Z,6.13
2023-04-03T18:54:17.159Z,8.93
2023-04-03T18:56:45.130Z,7.50
2023-04-03T18:59:12.679Z,8.07
2023-04-03T19:01:40.483Z,6.73
2023-04-03T19:04:08.582Z,6.50
2023-04-03T19:06:37.401Z,6.10
2023-04-03T19:09:06.767Z,5.53
2023-04-03T19:11:34.768Z,5.30
2023-04-03T19:14:14.382Z,5.67
2023-04-03T19:16:42.620Z,5.30
2023-04-03T19:19:10.076Z,5.43
2023-04-03T19:21:41.788Z,6.13
2023-04-03T19:24:13.364Z,6.53
2023-04-03T19:26:42.321Z,6.70
2023-04-03T19:29:10.355Z,7.30
2023-04-03T19:31:39.089Z,6.23
2023-04-03T19:34:07.723Z,5.73
2023-04-03T19:36:36.142Z,5.83
2023-04-03T19:39:04.490Z,5.77
2023-04-03T19:41:34.003Z,6.63
2023-04-03T19:44:01.476Z,6.33
2023-04-03T19:46:30.210Z,5.60
2023-04-03T19:48:58.003Z,5.27
2023-04-03T19:51:25.355Z,5.27
2023-04-03T19:53:53.265Z,5.53
2023-04-03T19:56:22.180Z,6.20
2023-04-03T19:58:54.000Z,6.90
2023-04-03T20:01:24.298Z,6.73
2023-04-03T20:03:51.937Z,6.07
2023-04-03T20:06:19.374Z,5.50
2023-04-03T20:08:46.684Z,5.70
2023-04-03T20:11:14.094Z,5.47
2023-04-03T20:13:41.515Z,6.10
2023-04-03T20:16:10.197Z,5.47
2023-04-03T20:18:38.726Z,5.80
2023-04-03T20:21:07.134Z,6.40
2023-04-03T20:23:36.474Z,5.83
2023-04-03T20:26:15.211Z,6.70
2023-04-03T20:28:43.187Z,7.30
2023-04-03T20:31:13.133Z,6.57
2023-04-03T20:33:40.352Z,6.60
2023-04-03T20:36:08.369Z,5.80
2023-04-03T20:38:35.880Z,5.63
2023-04-03T20:41:03.132Z,5.63
2023-04-03T20:43:30.849Z,5.50
2023-04-03T20:46:02.368Z,5.57
2023-04-03T20:48:31.231Z,5.63
2023-04-03T20:50:59.178Z,6.00
2023-04-03T20:53:27.267Z,5.97
2023-04-03T20:56:00.160Z,5.33
2023-04-03T20:58:33.163Z,6.10
